sensor_id;sensor_type;location;lat;lon;timestamp;temperature;humidity
62555;DHT22;48610;52.144;8.624;2024-02-15T00:03:00;13.30;99.90
62555;DHT22;48610;52.144;8.624;2024-02-15T00:06:00;13.10;99.90
62555;DHT22;48610;52.144;8.624;2024-02-15T00:09:01;13.10;99.90
62555;DHT22;48610;52.144;8.624;2024-02-15T00:12:02;13.00;99.90
62555;DHT22;48610;52.144;8.624;2024-02-15T00:15:03;13.10;99.90
62555;DHT22;48610;52.144;8.624;2024-02-15T00:18:04;13.00;99.90
62555;DHT22;48610;52.144;8.624;2024-02-15T00:21:05;13.00;99.90
62555;DHT22;48610;52.144;8.624;2024-02-15T00:24:05;13.00;99.90
62555;DHT22;48610;52.144;8.624;2024-02-15T00:27:07;12.90;99.90
62555;DHT22;48610;52.144;8.624;2024-02-15T00:30:08;13.00;99.90
62555;DHT22;48610;52.144;8.624;2024-02-15T00:33:09;13.00;99.90
62555;DHT22;48610;52.144;8.624;2024-02-15T00:36:10;12.90;99.90
62555;DHT22;48610;52.144;8.624;2024-02-15T00:39:11;12.90;99.90
62555;DHT22;48610;52.144;8.624;2024-02-15T00:42:14;12.90;99.90
62555;DHT22;48610;52.144;8.624;2024-02-15T00:45:15;12.70;99.90
62555;DHT22;48610;52.144;8.624;2024-02-15T00:48:16;12.70;99.90
62555;DHT22;48610;52.144;8.624;2024-02-15T00:51:16;12.90;99.90
62555;DHT22;48610;52.144;8.624;2024-02-15T00:54:17;12.90;99.90
62555;DHT22;48610;52.144;8.624;2024-02-15T00:57:18;12.90;99.90
62555;DHT22;48610;52.144;8.624;2024-02-15T01:00:18;12.90;99.90
62555;DHT22;48610;52.144;8.624;2024-02-15T01:03:19;12.80;99.90
62555;DHT22;48610;52.144;8.624;2024-02-15T01:06:20;12.80;99.90
62555;DHT22;48610;52.144;8.624;2024-02-15T01:09:22;12.80;99.90
62555;DHT22;48610;52.144;8.624;2024-02-15T01:12:22;12.80;99.90
62555;DHT22;48610;52.144;8.624;2024-02-15T01:15:23;12.80;99.90
62555;DHT22;48610;52.144;8.624;2024-02-15T01:18:23;12.90;99.90
62555;DHT22;48610;52.144;8.624;2024-02-15T01:21:24;13.00;99.90
62555;DHT22;48610;52.144;8.624;2024-02-15T01:24:24;13.00;99.90
62555;DHT22;48610;52.144;8.624;2024-02-15T01:27:25;13.00;99.90
62555;DHT22;48610;52.144;8.624;2024-02-15T01:30:30;13.00;99.90
62555;DHT22;48610;52.144;8.624;2024-02-15T01:33:32;13.00;99.90
62555;DHT22;48610;52.144;8.624;2024-02-15T01:36:32;13.10;99.90
62555;DHT22;48610;52.144;8.624;2024-02-15T01:39:33;13.20;99.90
62555;DHT22;48610;52.144;8.624;2024-02-15T01:42:33;13.40;99.90
62555;DHT22;48610;52.144;8.624;2024-02-15T01:45:34;13.30;99.90
62555;DHT22;48610;52.144;8.624;2024-02-15T01:48:39;13.20;99.90
62555;DHT22;48610;52.144;8.624;2024-02-15T01:51:40;13.10;99.90
62555;DHT22;48610;52.144;8.624;2024-02-15T01:54:44;13.20;99.90
62555;DHT22;48610;52.144;8.624;2024-02-15T01:57:45;13.30;99.90
62555;DHT22;48610;52.144;8.624;2024-02-15T02:00:48;13.10;99.90
62555;DHT22;48610;52.144;8.624;2024-02-15T02:03:49;13.10;99.90
62555;DHT22;48610;52.144;8.624;2024-02-15T02:06:50;13.10;99.90
62555;DHT22;48610;52.144;8.624;2024-02-15T02:09:50;13.20;99.90
62555;DHT22;48610;52.144;8.624;2024-02-15T02:12:51;13.10;99.90
62555;DHT22;48610;52.144;8.624;2024-02-15T02:15:52;13.10;99.90
62555;DHT22;48610;52.144;8.624;2024-02-15T02:18:56;13.10;99.90
62555;DHT22;48610;52.144;8.624;2024-02-15T02:21:57;13.10;99.90
62555;DHT22;48610;52.144;8.624;2024-02-15T02:25:08;13.20;99.90
62555;DHT22;48610;52.144;8.624;2024-02-15T02:28:09;13.20;99.90
62555;DHT22;48610;52.144;8.624;2024-02-15T02:31:10;13.20;99.90
62555;DHT22;48610;52.144;8.624;2024-02-15T02:34:12;13.10;99.90
62555;DHT22;48610;52.144;8.624;2024-02-15T02:37:14;13.10;99.90
62555;DHT22;48610;52.144;8.624;2024-02-15T02:40:14;13.20;99.90
62555;DHT22;48610;52.144;8.624;2024-02-15T02:43:15;13.10;99.90
62555;DHT22;48610;52.144;8.624;2024-02-15T02:46:15;13.20;99.90
62555;DHT22;48610;52.144;8.624;2024-02-15T02:49:16;13.20;99.90
62555;DHT22;48610;52.144;8.624;2024-02-15T02:52:17;13.20;99.90
62555;DHT22;48610;52.144;8.624;2024-02-15T02:55:18;13.10;99.90
62555;DHT22;48610;52.144;8.624;2024-02-15T02:58:19;13.00;99.90
62555;DHT22;48610;52.144;8.624;2024-02-15T03:01:22;13.00;99.90
62555;DHT22;48610;52.144;8.624;2024-02-15T03:04:25;13.00;99.90
62555;DHT22;48610;52.144;8.624;2024-02-15T03:07:26;13.00;99.90
62555;DHT22;48610;52.144;8.624;2024-02-15T03:10:27;13.00;99.90
62555;DHT22;48610;52.144;8.624;2024-02-15T03:13:28;13.00;99.90
62555;DHT22;48610;52.144;8.624;2024-02-15T03:16:30;13.00;99.90
62555;DHT22;48610;52.144;8.624;2024-02-15T03:19:31;13.10;99.90
62555;DHT22;48610;52.144;8.624;2024-02-15T03:22:32;13.10;99.90
62555;DHT22;48610;52.144;8.624;2024-02-15T03:25:34;13.10;99.90
62555;DHT22;48610;52.144;8.624;2024-02-15T03:28:35;13.10;99.90
62555;DHT22;48610;52.144;8.624;2024-02-15T03:31:37;13.20;99.90
62555;DHT22;48610;52.144;8.624;2024-02-15T03:34:37;13.10;99.90
62555;DHT22;48610;52.144;8.624;2024-02-15T03:37:40;13.10;99.90
62555;DHT22;48610;52.144;8.624;2024-02-15T03:40:41;13.20;99.90
62555;DHT22;48610;52.144;8.624;2024-02-15T03:43:42;13.00;99.90
62555;DHT22;48610;52.144;8.624;2024-02-15T03:46:42;13.20;99.90
62555;DHT22;48610;52.144;8.624;2024-02-15T03:49:43;13.20;99.90
62555;DHT22;48610;52.144;8.624;2024-02-15T03:52:44;13.40;99.90
62555;DHT22;48610;52.144;8.624;2024-02-15T03:55:45;13.30;99.90
62555;DHT22;48610;52.144;8.624;2024-02-15T03:58:45;13.40;99.90
62555;DHT22;48610;52.144;8.624;2024-02-15T04:01:46;13.40;99.90
62555;DHT22;48610;52.144;8.624;2024-02-15T04:04:47;13.60;99.90
62555;DHT22;48610;52.144;8.624;2024-02-15T04:07:47;13.50;99.90
62555;DHT22;48610;52.144;8.624;2024-02-15T04:10:48;13.50;99.90
62555;DHT22;48610;52.144;8.624;2024-02-15T04:13:49;13.60;99.90
62555;DHT22;48610;52.144;8.624;2024-02-15T04:16:49;13.50;99.90
62555;DHT22;48610;52.144;8.624;2024-02-15T04:19:50;13.40;99.90
62555;DHT22;48610;52.144;8.624;2024-02-15T04:22:51;13.40;99.90
62555;DHT22;48610;52.144;8.624;2024-02-15T04:25:51;13.30;99.90
62555;DHT22;48610;52.144;8.624;2024-02-15T04:28:53;13.30;99.90
62555;DHT22;48610;52.144;8.624;2024-02-15T04:31:53;13.10;99.90
62555;DHT22;48610;52.144;8.624;2024-02-15T04:34:55;13.10;99.90
62555;DHT22;48610;52.144;8.624;2024-02-15T04:37:55;13.20;99.90
62555;DHT22;48610;52.144;8.624;2024-02-15T04:40:56;13.20;99.90
62555;DHT22;48610;52.144;8.624;2024-02-15T04:43:58;13.20;99.90
62555;DHT22;48610;52.144;8.624;2024-02-15T04:46:58;13.20;99.90
62555;DHT22;48610;52.144;8.624;2024-02-15T04:49:59;13.40;99.90
62555;DHT22;48610;52.144;8.624;2024-02-15T04:52:59;13.40;99.90
62555;DHT22;48610;52.144;8.624;2024-02-15T04:56:00;13.40;99.90
62555;DHT22;48610;52.144;8.624;2024-02-15T04:59:04;13.50;99.90
62555;DHT22;48610;52.144;8.624;2024-02-15T05:02:04;13.60;99.90
62555;DHT22;48610;52.144;8.624;2024-02-15T05:05:06;13.60;99.90
62555;DHT22;48610;52.144;8.624;2024-02-15T05:08:08;13.50;99.90
62555;DHT22;48610;52.144;8.624;2024-02-15T05:11:10;13.40;99.90
62555;DHT22;48610;52.144;8.624;2024-02-15T05:14:20;13.30;99.90
62555;DHT22;48610;52.144;8.624;2024-02-15T05:17:21;13.30;99.90
62555;DHT22;48610;52.144;8.624;2024-02-15T05:20:22;13.20;99.90
62555;DHT22;48610;52.144;8.624;2024-02-15T05:23:22;13.30;99.90
62555;DHT22;48610;52.144;8.624;2024-02-15T05:26:23;13.40;99.90
62555;DHT22;48610;52.144;8.624;2024-02-15T05:29:23;13.50;99.90
62555;DHT22;48610;52.144;8.624;2024-02-15T05:32:24;13.40;99.90
62555;DHT22;48610;52.144;8.624;2024-02-15T05:35:26;13.50;99.90
62555;DHT22;48610;52.144;8.624;2024-02-15T05:38:28;13.50;99.90
62555;DHT22;48610;52.144;8.624;2024-02-15T05:41:29;13.40;99.90
62555;DHT22;48610;52.144;8.624;2024-02-15T05:44:30;13.20;99.90
62555;DHT22;48610;52.144;8.624;2024-02-15T05:47:30;13.00;99.90
62555;DHT22;48610;52.144;8.624;2024-02-15T05:50:31;13.00;99.90
62555;DHT22;48610;52.144;8.624;2024-02-15T05:53:32;12.90;99.90
62555;DHT22;48610;52.144;8.624;2024-02-15T05:56:39;13.00;99.90
62555;DHT22;48610;52.144;8.624;2024-02-15T05:59:39;12.90;99.90
62555;DHT22;48610;52.144;8.624;2024-02-15T06:02:41;13.00;99.90
62555;DHT22;48610;52.144;8.624;2024-02-15T06:05:42;13.00;99.90
62555;DHT22;48610;52.144;8.624;2024-02-15T06:08:46;12.90;99.90
62555;DHT22;48610;52.144;8.624;2024-02-15T06:11:47;13.00;99.90
62555;DHT22;48610;52.144;8.624;2024-02-15T06:14:47;13.00;99.90
62555;DHT22;48610;52.144;8.624;2024-02-15T06:17:48;13.20;99.90
62555;DHT22;48610;52.144;8.624;2024-02-15T06:20:52;13.10;99.90
62555;DHT22;48610;52.144;8.624;2024-02-15T06:23:53;13.20;99.90
62555;DHT22;48610;52.144;8.624;2024-02-15T06:26:53;13.20;99.90
62555;DHT22;48610;52.144;8.624;2024-02-15T06:30:00;13.00;99.90
62555;DHT22;48610;52.144;8.624;2024-02-15T06:33:19;12.90;99.90
62555;DHT22;48610;52.144;8.624;2024-02-15T06:36:47;13.00;99.90
62555;DHT22;48610;52.144;8.624;2024-02-15T06:40:07;13.20;99.90
62555;DHT22;48610;52.144;8.624;2024-02-15T06:43:08;13.10;99.90
62555;DHT22;48610;52.144;8.624;2024-02-15T06:46:09;13.10;99.90
62555;DHT22;48610;52.144;8.624;2024-02-15T06:49:11;13.10;99.90
62555;DHT22;48610;52.144;8.624;2024-02-15T06:52:11;13.00;99.90
62555;DHT22;48610;52.144;8.624;2024-02-15T06:55:12;12.90;99.90
62555;DHT22;48610;52.144;8.624;2024-02-15T06:58:16;12.90;99.90
62555;DHT22;48610;52.144;8.624;2024-02-15T07:01:16;12.80;99.90
62555;DHT22;48610;52.144;8.624;2024-02-15T07:04:18;12.80;99.90
62555;DHT22;48610;52.144;8.624;2024-02-15T07:07:19;12.70;99.90
62555;DHT22;48610;52.144;8.624;2024-02-15T07:10:20;12.60;99.90
62555;DHT22;48610;52.144;8.624;2024-02-15T07:13:21;12.60;99.90
62555;DHT22;48610;52.144;8.624;2024-02-15T07:16:22;12.60;99.90
62555;DHT22;48610;52.144;8.624;2024-02-15T07:19:23;12.70;99.90
62555;DHT22;48610;52.144;8.624;2024-02-15T07:22:24;12.70;99.90
62555;DHT22;48610;52.144;8.624;2024-02-15T07:25:24;12.80;99.90
62555;DHT22;48610;52.144;8.624;2024-02-15T07:28:25;12.70;99.90
62555;DHT22;48610;52.144;8.624;2024-02-15T07:31:29;12.70;99.90
62555;DHT22;48610;52.144;8.624;2024-02-15T07:34:30;12.80;99.90
62555;DHT22;48610;52.144;8.624;2024-02-15T07:37:31;12.80;99.90
62555;DHT22;48610;52.144;8.624;2024-02-15T07:40:33;12.90;99.90
62555;DHT22;48610;52.144;8.624;2024-02-15T07:43:33;12.80;99.90
62555;DHT22;48610;52.144;8.624;2024-02-15T07:46:34;12.70;99.90
62555;DHT22;48610;52.144;8.624;2024-02-15T07:49:37;12.70;99.90
62555;DHT22;48610;52.144;8.624;2024-02-15T07:52:38;12.80;99.90
62555;DHT22;48610;52.144;8.624;2024-02-15T07:55:38;12.80;99.90
62555;DHT22;48610;52.144;8.624;2024-02-15T07:58:43;12.90;99.90
62555;DHT22;48610;52.144;8.624;2024-02-15T08:01:52;13.00;99.90
62555;DHT22;48610;52.144;8.624;2024-02-15T08:04:52;13.00;99.90
62555;DHT22;48610;52.144;8.624;2024-02-15T08:07:54;12.90;99.90
62555;DHT22;48610;52.144;8.624;2024-02-15T08:10:57;13.10;99.90
62555;DHT22;48610;52.144;8.624;2024-02-15T08:13:58;13.00;99.90
62555;DHT22;48610;52.144;8.624;2024-02-15T08:17:01;13.00;99.90
62555;DHT22;48610;52.144;8.624;2024-02-15T08:20:03;13.10;99.90
62555;DHT22;48610;52.144;8.624;2024-02-15T08:23:07;13.00;99.90
62555;DHT22;48610;52.144;8.624;2024-02-15T08:26:11;12.90;99.90
62555;DHT22;48610;52.144;8.624;2024-02-15T08:29:11;13.00;99.90
62555;DHT22;48610;52.144;8.624;2024-02-15T08:32:14;13.10;99.90
62555;DHT22;48610;52.144;8.624;2024-02-15T08:35:14;13.30;99.90
62555;DHT22;48610;52.144;8.624;2024-02-15T08:38:16;13.30;99.90
62555;DHT22;48610;52.144;8.624;2024-02-15T08:41:17;13.30;99.90
62555;DHT22;48610;52.144;8.624;2024-02-15T08:44:27;13.30;99.90
62555;DHT22;48610;52.144;8.624;2024-02-15T08:47:27;13.20;99.90
62555;DHT22;48610;52.144;8.624;2024-02-15T08:50:28;13.20;99.90
62555;DHT22;48610;52.144;8.624;2024-02-15T08:53:28;13.20;99.90
62555;DHT22;48610;52.144;8.624;2024-02-15T08:56:29;13.30;99.90
62555;DHT22;48610;52.144;8.624;2024-02-15T08:59:29;13.20;99.90
62555;DHT22;48610;52.144;8.624;2024-02-15T09:02:30;13.20;99.90
62555;DHT22;48610;52.144;8.624;2024-02-15T09:05:30;13.20;99.90
62555;DHT22;48610;52.144;8.624;2024-02-15T09:08:31;13.30;99.90
62555;DHT22;48610;52.144;8.624;2024-02-15T09:11:31;13.30;99.90
62555;DHT22;48610;52.144;8.624;2024-02-15T09:14:33;13.30;99.90
62555;DHT22;48610;52.144;8.624;2024-02-15T09:17:37;13.20;99.90
62555;DHT22;48610;52.144;8.624;2024-02-15T09:20:41;13.20;99.90
62555;DHT22;48610;52.144;8.624;2024-02-15T09:23:45;13.20;99.90
62555;DHT22;48610;52.144;8.624;2024-02-15T09:26:45;13.20;99.90
62555;DHT22;48610;52.144;8.624;2024-02-15T09:29:46;13.10;99.90
62555;DHT22;48610;52.144;8.624;2024-02-15T09:32:47;13.00;99.90
62555;DHT22;48610;52.144;8.624;2024-02-15T09:35:47;12.90;99.90
62555;DHT22;48610;52.144;8.624;2024-02-15T09:38:48;13.10;99.90
62555;DHT22;48610;52.144;8.624;2024-02-15T09:41:49;13.20;99.90
62555;DHT22;48610;52.144;8.624;2024-02-15T09:44:59;13.20;99.90
62555;DHT22;48610;52.144;8.624;2024-02-15T09:48:03;13.30;99.90
62555;DHT22;48610;52.144;8.624;2024-02-15T09:51:07;13.30;99.90
62555;DHT22;48610;52.144;8.624;2024-02-15T09:54:08;13.20;99.90
62555;DHT22;48610;52.144;8.624;2024-02-15T09:57:10;13.20;99.90
62555;DHT22;48610;52.144;8.624;2024-02-15T10:00:12;13.10;99.90
62555;DHT22;48610;52.144;8.624;2024-02-15T10:03:18;13.20;99.90
62555;DHT22;48610;52.144;8.624;2024-02-15T10:06:20;13.30;99.90
62555;DHT22;48610;52.144;8.624;2024-02-15T10:09:28;13.40;99.90
62555;DHT22;48610;52.144;8.624;2024-02-15T10:12:38;13.40;99.90
62555;DHT22;48610;52.144;8.624;2024-02-15T10:15:41;13.20;99.90
62555;DHT22;48610;52.144;8.624;2024-02-15T10:18:42;13.10;99.90
62555;DHT22;48610;52.144;8.624;2024-02-15T10:21:42;13.10;99.90
62555;DHT22;48610;52.144;8.624;2024-02-15T10:24:43;13.10;99.90
62555;DHT22;48610;52.144;8.624;2024-02-15T10:27:44;13.00;99.90
62555;DHT22;48610;52.144;8.624;2024-02-15T10:30:45;13.00;99.90
62555;DHT22;48610;52.144;8.624;2024-02-15T10:33:48;13.00;99.90
62555;DHT22;48610;52.144;8.624;2024-02-15T10:36:49;13.20;99.90
62555;DHT22;48610;52.144;8.624;2024-02-15T10:40:06;13.10;99.90
62555;DHT22;48610;52.144;8.624;2024-02-15T10:43:07;13.00;99.90
62555;DHT22;48610;52.144;8.624;2024-02-15T10:46:09;12.90;99.90
62555;DHT22;48610;52.144;8.624;2024-02-15T10:49:10;12.90;99.90
62555;DHT22;48610;52.144;8.624;2024-02-15T10:52:11;13.00;99.90
62555;DHT22;48610;52.144;8.624;2024-02-15T10:55:17;13.00;99.90
62555;DHT22;48610;52.144;8.624;2024-02-15T10:58:25;12.90;99.90
62555;DHT22;48610;52.144;8.624;2024-02-15T11:01:32;12.80;99.90
62555;DHT22;48610;52.144;8.624;2024-02-15T11:04:35;12.80;99.90
62555;DHT22;48610;52.144;8.624;2024-02-15T11:07:36;12.70;99.90
62555;DHT22;48610;52.144;8.624;2024-02-15T11:10:37;12.70;99.90
62555;DHT22;48610;52.144;8.624;2024-02-15T11:13:39;12.80;99.90
62555;DHT22;48610;52.144;8.624;2024-02-15T11:16:42;12.80;99.90
62555;DHT22;48610;52.144;8.624;2024-02-15T11:19:44;12.70;99.90
62555;DHT22;48610;52.144;8.624;2024-02-15T11:22:59;12.70;99.90
62555;DHT22;48610;52.144;8.624;2024-02-15T11:25:59;12.70;99.90
62555;DHT22;48610;52.144;8.624;2024-02-15T11:29:01;12.70;99.90
62555;DHT22;48610;52.144;8.624;2024-02-15T11:32:03;12.70;99.90
62555;DHT22;48610;52.144;8.624;2024-02-15T11:35:07;12.70;99.90
62555;DHT22;48610;52.144;8.624;2024-02-15T11:38:29;12.60;99.90
62555;DHT22;48610;52.144;8.624;2024-02-15T11:41:30;12.60;99.90
62555;DHT22;48610;52.144;8.624;2024-02-15T11:44:30;12.60;99.90
62555;DHT22;48610;52.144;8.624;2024-02-15T11:47:33;12.60;99.90
62555;DHT22;48610;52.144;8.624;2024-02-15T11:50:38;12.70;99.90
62555;DHT22;48610;52.144;8.624;2024-02-15T11:53:39;12.70;99.90
62555;DHT22;48610;52.144;8.624;2024-02-15T11:59:43;12.60;99.90
62555;DHT22;48610;52.144;8.624;2024-02-15T12:03:04;12.70;99.90
62555;DHT22;48610;52.144;8.624;2024-02-15T12:06:24;12.90;99.90
62555;DHT22;48610;52.144;8.624;2024-02-15T12:09:43;13.00;99.90
62555;DHT22;48610;52.144;8.624;2024-02-15T12:13:02;13.20;99.90
62555;DHT22;48610;52.144;8.624;2024-02-15T12:16:22;13.30;99.90
62555;DHT22;48610;52.144;8.624;2024-02-15T12:19:41;13.60;99.90
62555;DHT22;48610;52.144;8.624;2024-02-15T12:22:48;13.60;99.90
62555;DHT22;48610;52.144;8.624;2024-02-15T12:25:53;13.60;99.90
62555;DHT22;48610;52.144;8.624;2024-02-15T12:28:54;13.70;99.90
62555;DHT22;48610;52.144;8.624;2024-02-15T12:31:58;13.70;99.90
62555;DHT22;48610;52.144;8.624;2024-02-15T12:35:13;13.70;99.90
62555;DHT22;48610;52.144;8.624;2024-02-15T12:38:17;13.80;99.90
62555;DHT22;48610;52.144;8.624;2024-02-15T12:41:20;13.80;99.90
62555;DHT22;48610;52.144;8.624;2024-02-15T12:44:20;13.70;99.90
62555;DHT22;48610;52.144;8.624;2024-02-15T12:47:22;13.80;99.90
62555;DHT22;48610;52.144;8.624;2024-02-15T12:50:27;13.80;99.90
62555;DHT22;48610;52.144;8.624;2024-02-15T12:53:28;14.00;99.90
62555;DHT22;48610;52.144;8.624;2024-02-15T12:56:28;13.80;99.90
62555;DHT22;48610;52.144;8.624;2024-02-15T12:59:29;13.90;99.90
62555;DHT22;48610;52.144;8.624;2024-02-15T13:02:29;13.80;99.90
62555;DHT22;48610;52.144;8.624;2024-02-15T13:05:31;13.90;99.90
62555;DHT22;48610;52.144;8.624;2024-02-15T13:08:31;14.00;99.90
62555;DHT22;48610;52.144;8.624;2024-02-15T13:11:32;14.10;99.90
62555;DHT22;48610;52.144;8.624;2024-02-15T13:14:34;14.00;99.90
62555;DHT22;48610;52.144;8.624;2024-02-15T13:17:35;14.10;99.90
62555;DHT22;48610;52.144;8.624;2024-02-15T13:20:38;14.10;99.90
62555;DHT22;48610;52.144;8.624;2024-02-15T13:23:38;14.10;99.90
62555;DHT22;48610;52.144;8.624;2024-02-15T13:26:39;14.10;99.90
62555;DHT22;48610;52.144;8.624;2024-02-15T13:29:40;14.30;99.90
62555;DHT22;48610;52.144;8.624;2024-02-15T13:32:41;14.20;99.90
62555;DHT22;48610;52.144;8.624;2024-02-15T13:35:42;14.20;99.90
62555;DHT22;48610;52.144;8.624;2024-02-15T13:38:43;14.20;99.90
62555;DHT22;48610;52.144;8.624;2024-02-15T13:41:43;14.20;99.90
62555;DHT22;48610;52.144;8.624;2024-02-15T13:44:44;14.10;99.90
62555;DHT22;48610;52.144;8.624;2024-02-15T13:47:46;14.10;99.90
62555;DHT22;48610;52.144;8.624;2024-02-15T13:50:50;14.10;99.90
62555;DHT22;48610;52.144;8.624;2024-02-15T13:53:53;14.20;99.90
62555;DHT22;48610;52.144;8.624;2024-02-15T13:56:53;14.20;99.90
62555;DHT22;48610;52.144;8.624;2024-02-15T13:59:54;14.10;99.90
62555;DHT22;48610;52.144;8.624;2024-02-15T14:02:56;14.00;99.90
62555;DHT22;48610;52.144;8.624;2024-02-15T14:05:57;14.00;99.90
62555;DHT22;48610;52.144;8.624;2024-02-15T14:08:58;14.00;99.90
62555;DHT22;48610;52.144;8.624;2024-02-15T14:11:58;14.00;99.90
62555;DHT22;48610;52.144;8.624;2024-02-15T14:14:59;14.00;99.90
62555;DHT22;48610;52.144;8.624;2024-02-15T14:18:00;14.10;99.90
62555;DHT22;48610;52.144;8.624;2024-02-15T14:21:01;14.20;99.90
62555;DHT22;48610;52.144;8.624;2024-02-15T14:24:02;14.30;99.90
62555;DHT22;48610;52.144;8.624;2024-02-15T14:27:03;14.30;99.90
62555;DHT22;48610;52.144;8.624;2024-02-15T14:30:05;14.30;99.90
62555;DHT22;48610;52.144;8.624;2024-02-15T14:33:24;14.40;99.90
62555;DHT22;48610;52.144;8.624;2024-02-15T14:36:24;14.30;99.90
62555;DHT22;48610;52.144;8.624;2024-02-15T14:39:26;14.30;99.90
62555;DHT22;48610;52.144;8.624;2024-02-15T14:42:27;14.40;99.90
62555;DHT22;48610;52.144;8.624;2024-02-15T14:45:28;14.40;99.90
62555;DHT22;48610;52.144;8.624;2024-02-15T14:48:29;14.40;99.90
62555;DHT22;48610;52.144;8.624;2024-02-15T14:51:31;14.40;99.90
62555;DHT22;48610;52.144;8.624;2024-02-15T14:54:32;14.40;99.90
62555;DHT22;48610;52.144;8.624;2024-02-15T14:57:34;14.40;99.90
62555;DHT22;48610;52.144;8.624;2024-02-15T15:00:36;14.40;99.90
62555;DHT22;48610;52.144;8.624;2024-02-15T15:03:37;14.40;99.90
62555;DHT22;48610;52.144;8.624;2024-02-15T15:06:38;14.40;99.90
62555;DHT22;48610;52.144;8.624;2024-02-15T15:09:58;14.40;99.90
62555;DHT22;48610;52.144;8.624;2024-02-15T15:13:18;14.40;99.90
62555;DHT22;48610;52.144;8.624;2024-02-15T15:16:19;14.50;99.90
62555;DHT22;48610;52.144;8.624;2024-02-15T15:19:21;14.50;99.90
62555;DHT22;48610;52.144;8.624;2024-02-15T15:22:21;14.50;99.90
62555;DHT22;48610;52.144;8.624;2024-02-15T15:25:22;14.60;99.90
62555;DHT22;48610;52.144;8.624;2024-02-15T15:28:24;14.60;99.90
62555;DHT22;48610;52.144;8.624;2024-02-15T15:31:25;14.50;99.90
62555;DHT22;48610;52.144;8.624;2024-02-15T15:34:26;14.50;99.90
62555;DHT22;48610;52.144;8.624;2024-02-15T15:37:26;14.50;99.90
62555;DHT22;48610;52.144;8.624;2024-02-15T15:40:27;14.50;99.90
62555;DHT22;48610;52.144;8.624;2024-02-15T15:43:28;14.60;99.90
62555;DHT22;48610;52.144;8.624;2024-02-15T15:46:29;14.50;99.90
62555;DHT22;48610;52.144;8.624;2024-02-15T15:49:30;14.50;99.90
62555;DHT22;48610;52.144;8.624;2024-02-15T15:52:32;14.50;99.90
62555;DHT22;48610;52.144;8.624;2024-02-15T15:55:34;14.60;99.90
62555;DHT22;48610;52.144;8.624;2024-02-15T15:58:35;14.50;99.90
62555;DHT22;48610;52.144;8.624;2024-02-15T16:01:35;14.60;99.90
62555;DHT22;48610;52.144;8.624;2024-02-15T16:04:44;14.60;99.90
62555;DHT22;48610;52.144;8.624;2024-02-15T16:07:47;14.60;99.90
62555;DHT22;48610;52.144;8.624;2024-02-15T16:10:47;14.60;99.90
62555;DHT22;48610;52.144;8.624;2024-02-15T16:13:48;14.60;99.90
62555;DHT22;48610;52.144;8.624;2024-02-15T16:16:50;14.60;99.90
62555;DHT22;48610;52.144;8.624;2024-02-15T16:19:50;14.50;99.90
62555;DHT22;48610;52.144;8.624;2024-02-15T16:22:51;14.50;99.90
62555;DHT22;48610;52.144;8.624;2024-02-15T16:25:52;14.50;99.90
62555;DHT22;48610;52.144;8.624;2024-02-15T16:28:53;14.40;99.90
62555;DHT22;48610;52.144;8.624;2024-02-15T16:31:53;14.40;99.90
62555;DHT22;48610;52.144;8.624;2024-02-15T16:34:54;14.40;99.90
62555;DHT22;48610;52.144;8.624;2024-02-15T16:37:57;14.50;99.90
62555;DHT22;48610;52.144;8.624;2024-02-15T16:40:58;14.50;99.90
62555;DHT22;48610;52.144;8.624;2024-02-15T16:43:59;14.50;99.90
62555;DHT22;48610;52.144;8.624;2024-02-15T16:47:00;14.40;99.90
62555;DHT22;48610;52.144;8.624;2024-02-15T16:50:00;14.40;99.90
62555;DHT22;48610;52.144;8.624;2024-02-15T16:53:01;14.40;99.90
62555;DHT22;48610;52.144;8.624;2024-02-15T16:56:02;14.40;99.90
62555;DHT22;48610;52.144;8.624;2024-02-15T16:59:03;14.40;99.90
62555;DHT22;48610;52.144;8.624;2024-02-15T17:02:03;14.50;99.90
62555;DHT22;48610;52.144;8.624;2024-02-15T17:05:04;14.50;99.90
62555;DHT22;48610;52.144;8.624;2024-02-15T17:08:05;14.50;99.90
62555;DHT22;48610;52.144;8.624;2024-02-15T17:11:06;14.40;99.90
62555;DHT22;48610;52.144;8.624;2024-02-15T17:14:07;14.30;99.90
62555;DHT22;48610;52.144;8.624;2024-02-15T17:17:08;14.30;99.90
62555;DHT22;48610;52.144;8.624;2024-02-15T17:20:09;14.00;99.90
62555;DHT22;48610;52.144;8.624;2024-02-15T17:23:16;13.90;99.90
62555;DHT22;48610;52.144;8.624;2024-02-15T17:26:16;13.90;99.90
62555;DHT22;48610;52.144;8.624;2024-02-15T17:29:17;13.90;99.90
62555;DHT22;48610;52.144;8.624;2024-02-15T17:32:17;13.90;99.90
62555;DHT22;48610;52.144;8.624;2024-02-15T17:35:19;13.90;99.90
62555;DHT22;48610;52.144;8.624;2024-02-15T17:38:20;13.90;99.90
62555;DHT22;48610;52.144;8.624;2024-02-15T17:41:21;13.90;99.90
62555;DHT22;48610;52.144;8.624;2024-02-15T17:44:22;13.80;99.90
62555;DHT22;48610;52.144;8.624;2024-02-15T17:47:23;13.90;99.90
62555;DHT22;48610;52.144;8.624;2024-02-15T17:50:24;13.70;99.90
62555;DHT22;48610;52.144;8.624;2024-02-15T17:53:26;13.60;99.90
62555;DHT22;48610;52.144;8.624;2024-02-15T17:56:27;13.60;99.90
62555;DHT22;48610;52.144;8.624;2024-02-15T17:59:28;13.50;99.90
62555;DHT22;48610;52.144;8.624;2024-02-15T18:02:28;13.50;99.90
62555;DHT22;48610;52.144;8.624;2024-02-15T18:05:29;13.50;99.90
62555;DHT22;48610;52.144;8.624;2024-02-15T18:08:31;13.40;99.90
62555;DHT22;48610;52.144;8.624;2024-02-15T18:11:31;13.40;99.90
62555;DHT22;48610;52.144;8.624;2024-02-15T18:14:32;13.40;99.90
62555;DHT22;48610;52.144;8.624;2024-02-15T18:17:33;13.40;99.90
62555;DHT22;48610;52.144;8.624;2024-02-15T18:20:34;13.40;99.90
62555;DHT22;48610;52.144;8.624;2024-02-15T18:23:35;13.40;99.90
62555;DHT22;48610;52.144;8.624;2024-02-15T18:26:36;13.40;99.90
62555;DHT22;48610;52.144;8.624;2024-02-15T18:29:37;13.40;99.90
62555;DHT22;48610;52.144;8.624;2024-02-15T18:32:40;13.30;99.90
62555;DHT22;48610;52.144;8.624;2024-02-15T18:35:44;13.20;99.90
62555;DHT22;48610;52.144;8.624;2024-02-15T18:38:45;13.20;99.90
62555;DHT22;48610;52.144;8.624;2024-02-15T18:41:47;13.10;99.90
62555;DHT22;48610;52.144;8.624;2024-02-15T18:44:50;13.10;99.90
62555;DHT22;48610;52.144;8.624;2024-02-15T18:47:50;13.20;99.90
62555;DHT22;48610;52.144;8.624;2024-02-15T18:50:51;13.30;99.90
62555;DHT22;48610;52.144;8.624;2024-02-15T18:53:52;13.30;99.90
62555;DHT22;48610;52.144;8.624;2024-02-15T18:56:52;13.40;99.90
62555;DHT22;48610;52.144;8.624;2024-02-15T18:59:55;13.30;99.90
62555;DHT22;48610;52.144;8.624;2024-02-15T19:02:56;13.20;99.90
62555;DHT22;48610;52.144;8.624;2024-02-15T19:05:56;13.20;99.90
62555;DHT22;48610;52.144;8.624;2024-02-15T19:08:57;13.20;99.90
62555;DHT22;48610;52.144;8.624;2024-02-15T19:11:58;13.20;99.90
62555;DHT22;48610;52.144;8.624;2024-02-15T19:15:03;13.20;99.90